createdAt,value
2024-04-13T00:00:46.760Z,7.90
2024-04-13T00:03:34.573Z,9.30
2024-04-13T00:06:02.633Z,9.40
2024-04-13T00:08:30.458Z,8.00
2024-04-13T00:10:58.247Z,8.80
2024-04-13T00:13:28.174Z,8.20
2024-04-13T00:15:56.938Z,8.00
2024-04-13T00:18:25.045Z,8.20
2024-04-13T00:20:52.826Z,6.70
2024-04-13T00:23:20.536Z,7.50
2024-04-13T00:25:52.434Z,6.70
2024-04-13T00:28:20.235Z,9.10
2024-04-13T00:30:47.942Z,10.10
2024-04-13T00:33:15.925Z,9.50
2024-04-13T00:35:44.109Z,10.30
2024-04-13T00:38:15.348Z,8.60
2024-04-13T00:40:43.269Z,10.90
2024-04-13T00:43:12.707Z,9.90
2024-04-13T00:45:44.945Z,13.10
2024-04-13T00:48:20.892Z,10.30
2024-04-13T00:50:55.168Z,9.00
2024-04-13T00:53:23.130Z,12.00
2024-04-13T00:55:51.151Z,9.20
2024-04-13T00:58:26.340Z,8.20
2024-04-13T01:00:58.295Z,9.70
2024-04-13T01:03:27.262Z,8.60
2024-04-13T01:05:56.733Z,8.50
2024-04-13T01:08:25.763Z,10.40
2024-04-13T01:10:53.781Z,8.00
2024-04-13T01:13:22.383Z,7.80
2024-04-13T01:15:50.158Z,9.30
2024-04-13T01:18:18.198Z,8.60
2024-04-13T01:20:46.168Z,8.70
2024-04-13T01:23:15.811Z,9.80
2024-04-13T01:25:43.743Z,6.30
2024-04-13T01:28:13.722Z,8.70
2024-04-13T01:30:41.814Z,6.80
2024-04-13T01:33:10.858Z,12.40
2024-04-13T01:35:39.985Z,10.60
2024-04-13T01:38:07.869Z,7.30
2024-04-13T01:40:35.608Z,6.80
2024-04-13T01:43:03.421Z,9.70
2024-04-13T01:45:31.196Z,6.90
2024-04-13T01:47:59.027Z,13.50
2024-04-13T01:50:26.897Z,5.10
2024-04-13T01:52:54.695Z,6.70
2024-04-13T01:55:22.639Z,7.10
2024-04-13T01:57:50.475Z,8.50
2024-04-13T02:00:19.331Z,4.70
2024-04-13T02:02:47.539Z,6.60
2024-04-13T02:05:15.426Z,7.40
2024-04-13T02:07:43.249Z,7.00
2024-04-13T02:10:11.334Z,8.50
2024-04-13T02:12:39.089Z,7.00
2024-04-13T02:15:07.201Z,8.30
2024-04-13T02:17:35.451Z,7.90
2024-04-13T02:20:04.036Z,6.60
2024-04-13T02:22:36.424Z,9.10
2024-04-13T02:25:04.449Z,10.30
2024-04-13T02:27:32.708Z,7.30
2024-04-13T02:30:01.057Z,6.10
2024-04-13T02:32:29.730Z,7.20
2024-04-13T02:34:57.521Z,9.60
2024-04-13T02:37:25.286Z,7.00
2024-04-13T02:39:53.084Z,9.10
2024-04-13T02:42:20.912Z,8.30
2024-04-13T02:44:48.830Z,6.90
2024-04-13T02:47:16.636Z,9.30
2024-04-13T02:49:44.385Z,9.20
2024-04-13T02:52:12.122Z,6.80
2024-04-13T02:54:39.805Z,9.40
2024-04-13T02:57:07.512Z,8.00
2024-04-13T02:59:35.441Z,8.50
2024-04-13T03:02:03.178Z,10.10
2024-04-13T03:04:32.362Z,10.50
2024-04-13T03:07:03.299Z,7.90
2024-04-13T03:09:31.078Z,9.00
2024-04-13T03:11:58.929Z,7.10
2024-04-13T03:14:28.882Z,9.00
2024-04-13T03:16:56.661Z,7.10
2024-04-13T03:19:25.159Z,8.90
2024-04-13T03:21:53.076Z,7.70
2024-04-13T03:24:20.883Z,8.00
2024-04-13T03:26:48.614Z,8.20
2024-04-13T03:29:16.445Z,10.00
2024-04-13T03:31:44.254Z,9.10
2024-04-13T03:34:12.060Z,8.60
2024-04-13T03:36:41.541Z,8.80
2024-04-13T03:39:09.337Z,8.60
2024-04-13T03:41:37.108Z,11.40
2024-04-13T03:44:05.097Z,9.20
2024-04-13T03:46:32.885Z,7.10
2024-04-13T03:49:00.689Z,4.50
2024-04-13T03:51:28.683Z,7.60
2024-04-13T03:53:57.738Z,7.30
2024-04-13T03:56:25.531Z,15.10
2024-04-13T03:58:53.767Z,11.10
2024-04-13T04:01:21.661Z,6.80
2024-04-13T04:03:50.265Z,6.40
2024-04-13T04:06:19.261Z,6.70
2024-04-13T04:08:47.013Z,7.20
2024-04-13T04:11:14.683Z,9.10
2024-04-13T04:13:42.544Z,6.50
2024-04-13T04:16:10.414Z,5.80
2024-04-13T04:18:38.325Z,6.00
2024-04-13T04:21:06.385Z,7.10
2024-04-13T04:23:34.252Z,8.50
2024-04-13T04:26:03.142Z,6.70
2024-04-13T04:28:31.045Z,6.80
2024-04-13T04:31:12.318Z,6.90
2024-04-13T04:33:40.339Z,8.80
2024-04-13T04:36:10.050Z,4.30
2024-04-13T04:38:38.156Z,8.20
2024-04-13T04:41:06.135Z,5.50
2024-04-13T04:43:34.022Z,7.20
2024-04-13T04:46:01.970Z,6.80
2024-04-13T04:48:30.070Z,8.10
2024-04-13T04:50:59.060Z,6.40
2024-04-13T04:53:29.732Z,5.30
2024-04-13T04:56:00.576Z,9.30
2024-04-13T04:58:28.621Z,5.90
2024-04-13T05:00:56.450Z,6.10
2024-04-13T05:03:26.096Z,9.20
2024-04-13T05:05:54.070Z,4.70
2024-04-13T05:08:22.080Z,5.30
2024-04-13T05:10:50.138Z,6.60
2024-04-13T05:13:18.737Z,4.50
2024-04-13T05:15:46.489Z,4.40
2024-04-13T05:18:14.502Z,4.40
2024-04-13T05:20:42.386Z,4.60
2024-04-13T05:23:10.177Z,10.10
2024-04-13T05:25:37.933Z,4.70
2024-04-13T05:28:05.845Z,4.60
2024-04-13T05:30:33.653Z,3.70
2024-04-13T05:33:02.095Z,4.60
2024-04-13T05:35:30.338Z,3.60
2024-04-13T05:37:58.104Z,5.10
2024-04-13T05:40:26.259Z,5.10
2024-04-13T05:42:54.074Z,4.70
2024-04-13T05:45:21.984Z,6.50
2024-04-13T05:47:50.313Z,4.60
2024-04-13T05:50:18.166Z,4.90
2024-04-13T05:52:46.182Z,8.10
2024-04-13T05:55:14.068Z,5.10
2024-04-13T05:57:41.963Z,3.10
2024-04-13T06:00:10.680Z,4.10
2024-04-13T06:02:39.024Z,4.50
2024-04-13T06:05:07.190Z,4.70
2024-04-13T06:07:35.237Z,4.90
2024-04-13T06:10:06.075Z,4.70
2024-04-13T06:12:34.018Z,4.20
2024-04-13T06:15:02.075Z,5.20
2024-04-13T06:17:29.934Z,3.70
2024-04-13T06:19:57.674Z,5.00
2024-04-13T06:22:25.487Z,5.10
2024-04-13T06:24:54.058Z,4.10
2024-04-13T06:27:22.223Z,6.40
2024-04-13T06:29:51.295Z,5.50
2024-04-13T06:32:19.399Z,5.00
2024-04-13T06:34:48.120Z,5.60
2024-04-13T06:37:16.072Z,5.30
2024-04-13T06:39:44.016Z,2.70
2024-04-13T06:42:11.903Z,7.50
2024-04-13T06:44:39.824Z,8.10
2024-04-13T06:47:07.822Z,4.50
2024-04-13T06:49:35.953Z,3.20
2024-04-13T06:52:04.213Z,6.40
2024-04-13T06:54:32.221Z,4.20
2024-04-13T06:56:59.970Z,5.40
2024-04-13T06:59:27.702Z,6.10
2024-04-13T07:01:55.509Z,4.20
2024-04-13T07:04:23.401Z,4.30
2024-04-13T07:06:51.270Z,5.60
2024-04-13T07:09:21.894Z,5.70
2024-04-13T07:11:49.830Z,3.80
2024-04-13T07:14:17.635Z,8.90
2024-04-13T07:16:45.969Z,4.40
2024-04-13T07:19:13.798Z,6.40
2024-04-13T07:21:41.763Z,7.30
2024-04-13T07:24:09.709Z,2.90
2024-04-13T07:26:37.523Z,4.40
2024-04-13T07:29:05.291Z,3.60
2024-04-13T07:31:33.168Z,2.50
2024-04-13T07:34:01.004Z,2.60
2024-04-13T07:36:28.889Z,2.20
2024-04-13T07:38:56.743Z,2.30
2024-04-13T07:41:24.641Z,2.80
2024-04-13T07:43:52.548Z,1.90
2024-04-13T07:46:22.105Z,2.60
2024-04-13T07:48:49.951Z,1.60
2024-04-13T07:51:17.890Z,2.00
2024-04-13T07:53:45.703Z,2.30
2024-04-13T07:56:15.401Z,1.20
2024-04-13T07:58:43.453Z,3.80
2024-04-13T08:01:11.398Z,4.00
2024-04-13T08:03:39.242Z,2.90
2024-04-13T08:06:07.422Z,2.40
2024-04-13T08:08:35.246Z,1.40
2024-04-13T08:11:07.246Z,2.90
2024-04-13T08:13:35.057Z,2.10
2024-04-13T08:16:09.050Z,1.70
2024-04-13T08:18:37.735Z,5.50
2024-04-13T08:21:05.540Z,1.60
2024-04-13T08:23:33.481Z,4.20
2024-04-13T08:26:04.931Z,1.40
2024-04-13T08:28:32.943Z,2.10
2024-04-13T08:31:05.752Z,3.10
2024-04-13T08:33:34.146Z,1.60
2024-04-13T08:36:06.727Z,2.40
2024-04-13T08:41:13.751Z,2.20
2024-04-13T08:43:41.526Z,2.50
2024-04-13T08:46:09.731Z,1.70
2024-04-13T08:48:40.107Z,3.90
2024-04-13T08:51:11.132Z,2.80
2024-04-13T08:56:12.592Z,2.40
2024-04-13T08:58:43.387Z,1.80
2024-04-13T09:01:17.213Z,2.20
2024-04-13T09:03:45.565Z,2.20
2024-04-13T09:06:14.027Z,3.40
2024-04-13T09:08:43.982Z,3.40
2024-04-13T09:11:12.049Z,4.10
2024-04-13T09:13:42.186Z,2.50
2024-04-13T09:16:10.660Z,2.10
2024-04-13T09:18:41.459Z,2.90
2024-04-13T09:21:09.503Z,2.30
2024-04-13T09:23:37.394Z,0.80
2024-04-13T09:26:06.827Z,2.70
2024-04-13T09:28:42.373Z,2.70
2024-04-13T09:31:12.097Z,1.70
2024-04-13T09:33:40.275Z,1.40
2024-04-13T09:36:11.339Z,2.10
2024-04-13T09:38:39.378Z,0.70
2024-04-13T09:41:08.319Z,1.60
2024-04-13T09:43:37.175Z,1.10
2024-04-13T09:46:06.077Z,1.40
2024-04-13T09:48:33.964Z,0.60
2024-04-13T09:51:02.113Z,1.30
2024-04-13T09:53:31.045Z,1.60
2024-04-13T09:55:59.346Z,3.70
2024-04-13T09:58:27.251Z,0.80
2024-04-13T10:00:55.828Z,1.10
2024-04-13T10:03:23.867Z,1.90
2024-04-13T10:05:55.285Z,1.70
2024-04-13T10:08:28.767Z,1.60
2024-04-13T10:10:57.779Z,2.30
2024-04-13T10:13:30.790Z,2.10
2024-04-13T10:16:00.213Z,1.40
2024-04-13T10:18:28.560Z,3.00
2024-04-13T10:21:06.578Z,2.10
2024-04-13T10:23:41.743Z,4.00
2024-04-13T10:26:10.025Z,2.90
2024-04-13T10:28:39.221Z,1.70
2024-04-13T10:31:18.247Z,1.70
2024-04-13T10:33:57.151Z,2.40
2024-04-13T10:36:33.494Z,2.90
2024-04-13T10:39:06.234Z,3.60
2024-04-13T10:41:39.091Z,2.80
2024-04-13T10:44:08.598Z,2.40
2024-04-13T10:46:36.435Z,2.30
2024-04-13T10:49:05.280Z,2.30
2024-04-13T10:51:33.344Z,1.90
2024-04-13T10:54:02.351Z,3.90
2024-04-13T10:56:31.093Z,2.00
2024-04-13T10:58:58.933Z,1.90
2024-04-13T11:01:26.947Z,3.80
2024-04-13T11:04:06.349Z,3.20
2024-04-13T11:06:34.159Z,2.30
2024-04-13T11:09:02.140Z,1.80
2024-04-13T11:11:30.191Z,3.00
2024-04-13T11:13:58.173Z,3.80
2024-04-13T11:16:26.321Z,2.20
2024-04-13T11:18:54.861Z,3.00
2024-04-13T11:21:24.118Z,1.60
2024-04-13T11:23:52.455Z,1.30
2024-04-13T11:26:21.667Z,2.40
2024-04-13T11:28:49.554Z,1.30
2024-04-13T11:31:17.430Z,1.60
2024-04-13T11:33:45.383Z,2.10
2024-04-13T11:36:19.464Z,2.10
2024-04-13T11:38:48.087Z,4.10
2024-04-13T11:41:18.075Z,4.30
2024-04-13T11:43:53.931Z,1.90
2024-04-13T11:46:21.963Z,3.00
2024-04-13T11:48:51.386Z,3.10
2024-04-13T11:51:20.617Z,2.60
2024-04-13T11:53:50.834Z,1.80
2024-04-13T11:56:20.215Z,5.40
2024-04-13T11:58:52.858Z,3.50
2024-04-13T12:01:22.172Z,1.40
2024-04-13T12:03:50.043Z,1.40
2024-04-13T12:06:18.039Z,4.00
2024-04-13T12:08:45.818Z,2.20
2024-04-13T12:11:13.577Z,3.50
2024-04-13T12:13:41.424Z,4.60
2024-04-13T12:16:09.201Z,2.80
2024-04-13T12:18:37.164Z,1.00
2024-04-13T12:21:05.720Z,2.30
2024-04-13T12:23:33.878Z,1.20
2024-04-13T12:26:02.368Z,19.60
2024-04-13T12:28:30.171Z,3.70
2024-04-13T12:30:57.926Z,2.80
2024-04-13T12:33:25.868Z,1.50
2024-04-13T12:35:59.666Z,3.70
2024-04-13T12:38:28.854Z,1.50
2024-04-13T12:40:56.633Z,1.40
2024-04-13T12:43:24.370Z,4.30
2024-04-13T12:45:52.411Z,3.40
2024-04-13T12:48:20.331Z,3.40
2024-04-13T12:50:48.278Z,8.60
2024-04-13T12:53:16.097Z,3.40
2024-04-13T12:55:43.846Z,10.60
2024-04-13T12:58:13.586Z,8.50
2024-04-13T13:00:41.327Z,5.40
2024-04-13T13:03:09.688Z,4.30
2024-04-13T13:05:37.957Z,2.60
2024-04-13T13:08:05.928Z,5.90
2024-04-13T13:10:34.855Z,2.00
2024-04-13T13:13:02.630Z,3.80
2024-04-13T13:15:30.390Z,2.10
2024-04-13T13:17:58.204Z,3.20
2024-04-13T13:20:26.289Z,3.30
2024-04-13T13:22:54.028Z,2.60
2024-04-13T13:25:21.791Z,4.40
2024-04-13T13:27:50.663Z,6.30
2024-04-13T13:30:18.550Z,3.30
2024-04-13T13:32:46.690Z,2.90
2024-04-13T13:35:14.492Z,3.80
2024-04-13T13:37:42.280Z,3.60
2024-04-13T13:40:12.493Z,3.70
2024-04-13T13:42:40.356Z,2.00
2024-04-13T13:45:08.126Z,34.70
2024-04-13T13:47:35.963Z,7.10
2024-04-13T13:50:04.054Z,4.10
2024-04-13T13:52:31.941Z,3.60
2024-04-13T13:54:59.810Z,4.30
2024-04-13T13:57:27.910Z,3.10
2024-04-13T13:59:55.740Z,2.50
2024-04-13T14:02:24.227Z,6.60
2024-04-13T14:04:52.260Z,3.50
2024-04-13T14:07:20.110Z,7.90
2024-04-13T14:09:50.080Z,5.80
2024-04-13T14:12:18.009Z,4.00
2024-04-13T14:14:45.778Z,3.80
2024-04-13T14:17:13.462Z,3.70
2024-04-13T14:19:41.249Z,3.40
2024-04-13T14:22:10.442Z,3.50
2024-04-13T14:24:39.241Z,1.90
2024-04-13T14:27:07.013Z,2.40
2024-04-13T14:29:34.817Z,5.10
2024-04-13T14:32:02.675Z,3.10
2024-04-13T14:34:30.509Z,2.00
2024-04-13T14:36:58.492Z,3.80
2024-04-13T14:39:26.253Z,8.70
2024-04-13T14:41:53.998Z,3.30
2024-04-13T14:44:21.827Z,2.10
2024-04-13T14:46:49.615Z,3.40
2024-04-13T14:49:20.775Z,4.40
2024-04-13T14:51:48.799Z,4.20
2024-04-13T14:54:16.617Z,1.90
2024-04-13T14:56:47.012Z,4.40
2024-04-13T14:59:14.749Z,3.10
2024-04-13T15:01:42.860Z,3.00
2024-04-13T15:04:10.857Z,2.80
2024-04-13T15:06:38.939Z,4.00
2024-04-13T15:09:06.860Z,5.50
2024-04-13T15:11:34.824Z,2.40
2024-04-13T15:14:02.678Z,3.80
2024-04-13T15:16:30.466Z,3.50
2024-04-13T15:18:58.578Z,2.70
2024-04-13T15:21:26.451Z,4.10
2024-04-13T15:23:56.388Z,5.50
2024-04-13T15:26:26.148Z,3.20
2024-04-13T15:28:55.159Z,4.10
2024-04-13T15:31:26.461Z,2.00
2024-04-13T15:33:54.342Z,2.70
2024-04-13T15:36:22.290Z,3.40
2024-04-13T15:38:50.031Z,1.90
2024-04-13T15:41:17.884Z,3.20
2024-04-13T15:43:46.060Z,5.60
2024-04-13T15:46:13.890Z,3.20
2024-04-13T15:48:41.763Z,2.00
2024-04-13T15:51:09.693Z,2.50
2024-04-13T15:53:37.457Z,3.50
2024-04-13T15:56:06.172Z,4.60
2024-04-13T15:58:33.930Z,1.70
2024-04-13T16:01:02.977Z,2.70
2024-04-13T16:03:30.834Z,4.10
2024-04-13T16:05:58.782Z,2.10
2024-04-13T16:08:26.513Z,3.40
2024-04-13T16:10:54.370Z,4.10
2024-04-13T16:13:22.270Z,3.20
2024-04-13T16:15:50.134Z,5.40
2024-04-13T16:18:18.020Z,2.40
2024-04-13T16:20:46.784Z,3.00
2024-04-13T16:23:16.040Z,3.10
2024-04-13T16:25:43.784Z,3.10
2024-04-13T16:28:11.706Z,4.30
2024-04-13T16:30:39.609Z,3.60
2024-04-13T16:33:09.396Z,5.00
2024-04-13T16:35:37.270Z,8.20
2024-04-13T16:38:05.318Z,5.80
2024-04-13T16:40:33.132Z,6.30
2024-04-13T16:43:01.005Z,5.50
2024-04-13T16:45:28.886Z,4.00
2024-04-13T16:47:56.793Z,5.10
2024-04-13T16:50:24.760Z,4.10
2024-04-13T16:52:52.530Z,3.50
2024-04-13T16:55:20.352Z,2.40
2024-04-13T16:57:48.130Z,3.60
2024-04-13T17:00:15.896Z,4.30
2024-04-13T17:02:44.568Z,5.00
2024-04-13T17:05:12.351Z,4.30
2024-04-13T17:07:40.041Z,4.60
2024-04-13T17:10:08.099Z,6.30
2024-04-13T17:12:35.997Z,4.90
2024-04-13T17:15:06.936Z,6.30
2024-04-13T17:17:35.017Z,6.50
2024-04-13T17:20:02.972Z,6.90
2024-04-13T17:22:30.792Z,8.90
2024-04-13T17:24:58.490Z,8.40
2024-04-13T17:27:26.442Z,8.60
2024-04-13T17:29:54.317Z,8.40
2024-04-13T17:32:22.037Z,6.90
2024-04-13T17:34:49.941Z,8.20
2024-04-13T17:37:17.698Z,5.70
2024-04-13T17:39:45.617Z,9.00
2024-04-13T17:42:13.502Z,7.70
2024-04-13T17:44:41.404Z,5.90
2024-04-13T17:47:09.188Z,5.50
2024-04-13T17:49:38.105Z,10.10
2024-04-13T17:52:05.931Z,6.40
2024-04-13T17:54:33.792Z,7.60
2024-04-13T17:57:01.588Z,7.60
2024-04-13T17:59:29.406Z,9.00
2024-04-13T18:01:57.198Z,7.60
2024-04-13T18:04:24.987Z,7.00
2024-04-13T18:06:52.852Z,9.30
2024-04-13T18:09:20.687Z,8.10
2024-04-13T18:11:48.532Z,7.10
2024-04-13T18:14:16.325Z,10.30
2024-04-13T18:16:44.169Z,11.10
2024-04-13T18:19:12.300Z,12.20
2024-04-13T18:21:40.197Z,9.10
2024-04-13T18:24:08.937Z,6.80
2024-04-13T18:26:36.769Z,6.30
2024-04-13T18:29:04.525Z,10.10
2024-04-13T18:31:32.769Z,10.30
2024-04-13T18:34:03.721Z,8.00
2024-04-13T18:36:33.882Z,8.90
2024-04-13T18:39:01.668Z,9.10
2024-04-13T18:41:29.800Z,9.10
2024-04-13T18:43:57.665Z,8.40
2024-04-13T18:46:25.943Z,10.90
2024-04-13T18:48:53.746Z,10.90
2024-04-13T18:51:21.586Z,11.50
2024-04-13T18:53:49.388Z,11.40
2024-04-13T18:56:17.125Z,11.50
2024-04-13T18:58:45.057Z,10.10
2024-04-13T19:01:13.388Z,11.10
2024-04-13T19:03:41.534Z,8.40
2024-04-13T19:06:10.728Z,9.00
2024-04-13T19:08:38.701Z,8.50
2024-04-13T19:11:06.502Z,9.70
2024-04-13T19:13:34.224Z,8.90
2024-04-13T19:16:09.317Z,11.50
2024-04-13T19:18:40.122Z,11.30
2024-04-13T19:21:09.209Z,13.40
2024-04-13T19:23:37.178Z,10.50
2024-04-13T19:26:05.002Z,10.80
2024-04-13T19:28:32.788Z,11.80
2024-04-13T19:31:00.910Z,13.40
2024-04-13T19:33:29.968Z,9.00
2024-04-13T19:35:57.998Z,11.20
2024-04-13T19:38:26.460Z,9.20
2024-04-13T19:40:54.227Z,8.30
2024-04-13T19:43:22.062Z,12.70
2024-04-13T19:45:50.054Z,10.70
2024-04-13T19:48:18.145Z,12.70
2024-04-13T19:50:45.944Z,10.40
2024-04-13T19:53:13.755Z,14.40
2024-04-13T19:55:41.577Z,11.50
2024-04-13T19:58:09.428Z,13.90
2024-04-13T20:00:37.604Z,11.40
2024-04-13T20:03:05.944Z,9.50
2024-04-13T20:05:35.190Z,9.70
2024-04-13T20:08:04.104Z,9.40
2024-04-13T20:10:32.125Z,15.10
2024-04-13T20:13:00.146Z,10.40
2024-04-13T20:15:46.447Z,11.20
2024-04-13T20:18:32.752Z,12.30
2024-04-13T20:21:00.562Z,9.70
2024-04-13T20:23:28.295Z,13.00
2024-04-13T20:25:56.072Z,10.40
2024-04-13T20:28:23.949Z,13.80
2024-04-13T20:30:51.950Z,13.10
2024-04-13T20:33:21.508Z,12.70
2024-04-13T20:35:52.417Z,13.60
2024-04-13T20:38:20.615Z,13.20
2024-04-13T20:40:48.612Z,11.20
2024-04-13T20:43:16.408Z,12.70
2024-04-13T20:45:44.142Z,11.50
2024-04-13T20:48:12.313Z,12.00
2024-04-13T20:50:41.561Z,14.00
2024-04-13T20:53:09.640Z,14.80
2024-04-13T20:55:37.418Z,9.90
2024-04-13T20:58:05.192Z,11.50
2024-04-13T21:00:36.404Z,12.30
2024-04-13T21:03:04.523Z,16.50
2024-04-13T21:05:33.962Z,10.40
2024-04-13T21:08:03.066Z,10.90
2024-04-13T21:10:31.238Z,11.70
2024-04-13T21:13:01.035Z,8.90
2024-04-13T21:15:35.111Z,10.70
2024-04-13T21:18:05.913Z,12.70
2024-04-13T21:20:33.843Z,12.70
2024-04-13T21:23:01.699Z,14.10
2024-04-13T21:25:29.654Z,13.70
2024-04-13T21:27:58.522Z,13.20
2024-04-13T21:30:26.459Z,14.90
2024-04-13T21:32:54.238Z,15.30
2024-04-13T21:35:22.095Z,12.60
2024-04-13T21:37:57.199Z,15.90
2024-04-13T21:40:28.606Z,14.10
2024-04-13T21:42:56.427Z,12.10
2024-04-13T21:45:24.227Z,14.80
2024-04-13T21:47:52.078Z,10.90
2024-04-13T21:50:20.819Z,14.80
2024-04-13T21:52:48.595Z,12.20
2024-04-13T21:55:17.086Z,14.30
2024-04-13T21:57:44.862Z,12.90
2024-04-13T22:00:15.474Z,16.90
2024-04-13T22:02:43.181Z,13.20
2024-04-13T22:05:10.987Z,10.40
2024-04-13T22:07:38.780Z,10.80
2024-04-13T22:10:08.517Z,11.60
2024-04-13T22:12:36.211Z,11.30
2024-04-13T22:15:05.296Z,12.00
2024-04-13T22:17:33.165Z,12.70
2024-04-13T22:20:01.388Z,11.30
2024-04-13T22:22:29.184Z,9.70
2024-04-13T22:24:57.326Z,11.30
2024-04-13T22:27:25.185Z,11.00
2024-04-13T22:29:54.978Z,13.70
2024-04-13T22:32:22.743Z,10.90
2024-04-13T22:34:50.542Z,10.00
2024-04-13T22:37:19.696Z,12.80
2024-04-13T22:39:47.490Z,14.60
2024-04-13T22:42:15.479Z,13.70
2024-04-13T22:44:43.564Z,11.10
2024-04-13T22:47:12.619Z,11.40
2024-04-13T22:49:40.472Z,12.60
2024-04-13T22:52:08.250Z,12.20
2024-04-13T22:54:36.277Z,11.50
2024-04-13T22:57:04.688Z,12.90
2024-04-13T22:59:32.755Z,12.50
2024-04-13T23:02:00.859Z,14.10
2024-04-13T23:04:28.878Z,9.90
2024-04-13T23:06:57.187Z,12.20
2024-04-13T23:09:25.034Z,9.40
2024-04-13T23:11:52.795Z,10.00
2024-04-13T23:14:20.530Z,11.40
2024-04-13T23:16:48.274Z,12.50
2024-04-13T23:19:16.182Z,9.60
2024-04-13T23:21:44.037Z,10.20
2024-04-13T23:24:11.809Z,8.30
2024-04-13T23:26:40.841Z,10.60
2024-04-13T23:29:08.642Z,10.30
2024-04-13T23:31:41.697Z,11.80
2024-04-13T23:36:38.797Z,13.50
2024-04-13T23:39:11.317Z,9.00
2024-04-13T23:41:39.080Z,9.70
2024-04-13T23:44:13.591Z,12.50
2024-04-13T23:46:42.407Z,11.30
2024-04-13T23:49:10.361Z,11.00
2024-04-13T23:51:38.258Z,12.90
2024-04-13T23:54:06.292Z,13.30
2024-04-13T23:56:34.862Z,12.40
2024-04-13T23:59:02.702Z,12.40
